Pagrindinis puslapis
METAR-TAF:

METAR-TAF

Oro uostai :

Latakija, Sirija

platuma: 35-32N, ilguma: 035-46E, Aukštis: 7 m

Dabartinis oras

Ataskaita buvo paskelbta 22 minutes, ne 19:00 UTC
Vėjas 2 kt iš Rytų/Šiaurės Rytų
Temperatūra 19°C
Drėgmė 68%
Slėgis 1019 hPa
Matomumas 10 km arba daugiau
Mažai debesys ne aukštis 3000 ft

METAR: OSLK 221900Z 06002KT 9999 FEW030 19/13 Q1019

Laikas: 22:22 (19:22 UTC)

Prognozė

Ataskaita buvo paskelbta 9 valandos ir 17 minutes, ne 10:05 UTC
Prognozė galioja nuo 22 metu 12 UTC su 23 metu 12 UTC
Vėjas 10 kt iš Vakarų/Šiaurės Vakarų
Matomumas 10 km arba daugiau
Mažai debesys ne aukštis 3000 ft
Laikinai
nuo 22 metu 18 UTC su 23 metu 06 UTC
Vėjas 10 kt iš Pietvakarių
Matomumas 10 km arba daugiau
Mažai debesys ne aukštis 3000 ft

TAF: OSLK 221005Z 2212/2312 30010KT 9999 FEW030 TEMPO 2218/2306 22010KT 9999 FEW030

Orai ataskaitas ir orų prognozės (METAR, TAF).

turimą stotys yra geltonos ir raudonos taškus žemėlapyje.

Perkelti pele per norėdami pamatyti stoties vardą.

Tada spustelėkite, norėdami matyti oro stebėjimo ir prognozės.

Norėdami pakeisti žemėlapį: spustelėkite ant žalios mygtukų su juodo kryžiaus žemyn,; žalią mygtuką su brūkšneliu, jei norite nutolinti; arba žalių rodyklių gretimoms žemėlapius.


METAR-TAF: